sensor_id;sensor_type;location;lat;lon;timestamp;P1;durP1;ratioP1;P2;durP2;ratioP2
34697;SDS011;61391;50.922;6.928;2023-02-12T00:05:26;3.47;;;2.72;;
34697;SDS011;61391;50.922;6.928;2023-02-12T00:07:52;5.78;;;3.78;;
34697;SDS011;61391;50.922;6.928;2023-02-12T00:10:18;6.20;;;3.92;;
34697;SDS011;61391;50.922;6.928;2023-02-12T00:12:43;4.22;;;2.72;;
34697;SDS011;61391;50.922;6.928;2023-02-12T00:15:09;5.72;;;3.88;;
34697;SDS011;61391;50.922;6.928;2023-02-12T00:17:34;8.18;;;5.25;;
34697;SDS011;61391;50.922;6.928;2023-02-12T00:20:00;5.25;;;3.60;;
34697;SDS011;61391;50.922;6.928;2023-02-12T00:22:25;6.03;;;3.03;;
34697;SDS011;61391;50.922;6.928;2023-02-12T00:24:52;9.45;;;3.35;;
34697;SDS011;61391;50.922;6.928;2023-02-12T00:27:17;7.57;;;4.70;;
34697;SDS011;61391;50.922;6.928;2023-02-12T00:29:43;5.78;;;3.63;;
34697;SDS011;61391;50.922;6.928;2023-02-12T00:32:08;5.75;;;2.67;;
34697;SDS011;61391;50.922;6.928;2023-02-12T00:34:34;9.65;;;4.28;;
34697;SDS011;61391;50.922;6.928;2023-02-12T00:37:00;4.18;;;2.65;;
34697;SDS011;61391;50.922;6.928;2023-02-12T00:39:25;5.07;;;2.95;;
34697;SDS011;61391;50.922;6.928;2023-02-12T00:41:51;10.43;;;3.78;;
34697;SDS011;61391;50.922;6.928;2023-02-12T00:44:16;4.32;;;2.38;;
34697;SDS011;61391;50.922;6.928;2023-02-12T00:46:42;4.25;;;3.00;;
34697;SDS011;61391;50.922;6.928;2023-02-12T00:52:30;2.97;;;2.05;;
34697;SDS011;61391;50.922;6.928;2023-02-12T00:58:17;2.85;;;2.22;;
34697;SDS011;61391;50.922;6.928;2023-02-12T01:04:05;8.10;;;5.15;;
34697;SDS011;61391;50.922;6.928;2023-02-12T01:06:30;7.30;;;2.90;;
34697;SDS011;61391;50.922;6.928;2023-02-12T01:08:56;5.85;;;3.70;;
34697;SDS011;61391;50.922;6.928;2023-02-12T01:11:21;7.53;;;4.22;;
34697;SDS011;61391;50.922;6.928;2023-02-12T01:13:47;9.80;;;3.03;;
34697;SDS011;61391;50.922;6.928;2023-02-12T01:18:40;6.82;;;3.05;;
34697;SDS011;61391;50.922;6.928;2023-02-12T01:21:07;10.00;;;5.13;;
34697;SDS011;61391;50.922;6.928;2023-02-12T01:23:38;3.67;;;3.13;;
34697;SDS011;61391;50.922;6.928;2023-02-12T01:26:04;5.00;;;3.22;;
34697;SDS011;61391;50.922;6.928;2023-02-12T01:31:53;12.02;;;3.78;;
34697;SDS011;61391;50.922;6.928;2023-02-12T01:34:18;4.38;;;2.78;;
34697;SDS011;61391;50.922;6.928;2023-02-12T01:36:44;8.77;;;4.43;;
34697;SDS011;61391;50.922;6.928;2023-02-12T01:39:10;6.25;;;3.38;;
34697;SDS011;61391;50.922;6.928;2023-02-12T01:41:38;4.47;;;2.63;;
34697;SDS011;61391;50.922;6.928;2023-02-12T01:44:13;10.43;;;3.90;;
34697;SDS011;61391;50.922;6.928;2023-02-12T01:46:41;3.40;;;2.47;;
34697;SDS011;61391;50.922;6.928;2023-02-12T01:49:12;6.47;;;3.05;;
34697;SDS011;61391;50.922;6.928;2023-02-12T01:52:19;2.42;;;2.03;;
34697;SDS011;61391;50.922;6.928;2023-02-12T01:54:49;7.63;;;3.55;;
34697;SDS011;61391;50.922;6.928;2023-02-12T02:00:39;7.45;;;3.15;;
34697;SDS011;61391;50.922;6.928;2023-02-12T02:03:04;6.90;;;3.03;;
34697;SDS011;61391;50.922;6.928;2023-02-12T02:08:11;11.38;;;3.83;;
34697;SDS011;61391;50.922;6.928;2023-02-12T02:10:37;15.57;;;3.17;;
34697;SDS011;61391;50.922;6.928;2023-02-12T02:13:03;6.95;;;4.57;;
34697;SDS011;61391;50.922;6.928;2023-02-12T02:15:48;6.75;;;3.55;;
34697;SDS011;61391;50.922;6.928;2023-02-12T02:27:17;4.63;;;3.28;;
34697;SDS011;61391;50.922;6.928;2023-02-12T02:35:52;10.30;;;3.60;;
34697;SDS011;61391;50.922;6.928;2023-02-12T02:38:31;2.33;;;2.22;;
34697;SDS011;61391;50.922;6.928;2023-02-12T02:48:11;6.15;;;2.70;;
34697;SDS011;61391;50.922;6.928;2023-02-12T02:50:25;5.07;;;3.42;;
34697;SDS011;61391;50.922;6.928;2023-02-12T02:53:07;5.07;;;3.45;;
34697;SDS011;61391;50.922;6.928;2023-02-12T02:55:49;11.07;;;4.05;;
34697;SDS011;61391;50.922;6.928;2023-02-12T02:58:40;4.63;;;3.35;;
34697;SDS011;61391;50.922;6.928;2023-02-12T03:01:08;4.68;;;2.70;;
34697;SDS011;61391;50.922;6.928;2023-02-12T03:06:28;3.80;;;3.38;;
34697;SDS011;61391;50.922;6.928;2023-02-12T03:09:07;6.45;;;3.20;;
34697;SDS011;61391;50.922;6.928;2023-02-12T03:11:37;5.03;;;2.95;;
34697;SDS011;61391;50.922;6.928;2023-02-12T03:17:27;5.57;;;2.90;;
34697;SDS011;61391;50.922;6.928;2023-02-12T03:19:34;5.45;;;3.50;;
34697;SDS011;61391;50.922;6.928;2023-02-12T03:24:38;5.50;;;2.63;;
34697;SDS011;61391;50.922;6.928;2023-02-12T03:27:28;7.57;;;5.05;;
34697;SDS011;61391;50.922;6.928;2023-02-12T03:29:58;4.40;;;2.70;;
34697;SDS011;61391;50.922;6.928;2023-02-12T03:35:22;6.85;;;4.03;;
34697;SDS011;61391;50.922;6.928;2023-02-12T03:38:09;8.13;;;2.70;;
34697;SDS011;61391;50.922;6.928;2023-02-12T03:40:49;2.30;;;2.13;;
34697;SDS011;61391;50.922;6.928;2023-02-12T03:46:19;3.35;;;2.40;;
34697;SDS011;61391;50.922;6.928;2023-02-12T03:48:55;5.80;;;2.85;;
34697;SDS011;61391;50.922;6.928;2023-02-12T03:51:33;12.00;;;4.25;;
34697;SDS011;61391;50.922;6.928;2023-02-12T03:54:02;3.85;;;2.72;;
34697;SDS011;61391;50.922;6.928;2023-02-12T03:56:46;6.10;;;4.00;;
34697;SDS011;61391;50.922;6.928;2023-02-12T03:59:16;2.63;;;2.42;;
34697;SDS011;61391;50.922;6.928;2023-02-12T04:01:49;6.43;;;2.65;;
34697;SDS011;61391;50.922;6.928;2023-02-12T04:07:38;4.88;;;2.85;;
34697;SDS011;61391;50.922;6.928;2023-02-12T04:10:04;5.07;;;2.92;;
34697;SDS011;61391;50.922;6.928;2023-02-12T04:12:32;3.58;;;3.33;;
34697;SDS011;61391;50.922;6.928;2023-02-12T04:17:56;3.70;;;2.20;;
34697;SDS011;61391;50.922;6.928;2023-02-12T04:26:56;3.70;;;3.22;;
34697;SDS011;61391;50.922;6.928;2023-02-12T04:32:28;5.75;;;4.10;;
34697;SDS011;61391;50.922;6.928;2023-02-12T04:37:49;6.13;;;2.92;;
34697;SDS011;61391;50.922;6.928;2023-02-12T04:40:19;15.55;;;4.15;;
34697;SDS011;61391;50.922;6.928;2023-02-12T04:42:50;2.40;;;1.85;;
34697;SDS011;61391;50.922;6.928;2023-02-12T04:45:21;9.13;;;2.88;;
34697;SDS011;61391;50.922;6.928;2023-02-12T04:51:16;5.53;;;3.20;;
34697;SDS011;61391;50.922;6.928;2023-02-12T04:53:42;7.43;;;3.20;;
34697;SDS011;61391;50.922;6.928;2023-02-12T04:56:10;3.53;;;2.50;;
34697;SDS011;61391;50.922;6.928;2023-02-12T04:58:37;3.65;;;3.42;;
34697;SDS011;61391;50.922;6.928;2023-02-12T05:01:03;2.28;;;2.00;;
34697;SDS011;61391;50.922;6.928;2023-02-12T05:03:28;2.55;;;2.22;;
34697;SDS011;61391;50.922;6.928;2023-02-12T05:05:54;7.85;;;2.83;;
34697;SDS011;61391;50.922;6.928;2023-02-12T05:08:19;8.90;;;2.40;;
34697;SDS011;61391;50.922;6.928;2023-02-12T05:10:45;10.15;;;3.05;;
34697;SDS011;61391;50.922;6.928;2023-02-12T05:16:32;4.03;;;1.92;;
34697;SDS011;61391;50.922;6.928;2023-02-12T05:18:58;8.65;;;3.58;;
34697;SDS011;61391;50.922;6.928;2023-02-12T05:21:23;6.30;;;2.90;;
34697;SDS011;61391;50.922;6.928;2023-02-12T05:23:49;5.47;;;2.72;;
34697;SDS011;61391;50.922;6.928;2023-02-12T05:26:16;9.85;;;4.03;;
34697;SDS011;61391;50.922;6.928;2023-02-12T05:28:43;5.95;;;2.72;;
34697;SDS011;61391;50.922;6.928;2023-02-12T05:31:10;3.10;;;2.67;;
34697;SDS011;61391;50.922;6.928;2023-02-12T05:33:43;5.38;;;3.33;;
34697;SDS011;61391;50.922;6.928;2023-02-12T05:36:10;3.38;;;2.75;;
34697;SDS011;61391;50.922;6.928;2023-02-12T05:38:38;4.03;;;3.38;;
34697;SDS011;61391;50.922;6.928;2023-02-12T05:41:09;7.20;;;3.65;;
34697;SDS011;61391;50.922;6.928;2023-02-12T05:43:37;5.50;;;3.15;;
34697;SDS011;61391;50.922;6.928;2023-02-12T05:46:03;3.50;;;2.70;;
34697;SDS011;61391;50.922;6.928;2023-02-12T05:48:30;7.80;;;4.05;;
34697;SDS011;61391;50.922;6.928;2023-02-12T05:51:03;2.80;;;2.00;;
34697;SDS011;61391;50.922;6.928;2023-02-12T05:53:33;15.68;;;3.85;;
34697;SDS011;61391;50.922;6.928;2023-02-12T05:59:22;4.78;;;2.90;;
34697;SDS011;61391;50.922;6.928;2023-02-12T06:01:48;4.57;;;2.65;;
34697;SDS011;61391;50.922;6.928;2023-02-12T06:04:17;2.65;;;2.45;;
34697;SDS011;61391;50.922;6.928;2023-02-12T06:06:44;7.45;;;3.35;;
34697;SDS011;61391;50.922;6.928;2023-02-12T06:09:11;7.45;;;4.38;;
34697;SDS011;61391;50.922;6.928;2023-02-12T06:11:37;4.90;;;3.92;;
34697;SDS011;61391;50.922;6.928;2023-02-12T06:14:04;7.68;;;3.60;;
34697;SDS011;61391;50.922;6.928;2023-02-12T06:16:31;4.45;;;2.60;;
34697;SDS011;61391;50.922;6.928;2023-02-12T06:18:57;16.70;;;3.13;;
34697;SDS011;61391;50.922;6.928;2023-02-12T06:21:25;4.63;;;3.72;;
34697;SDS011;61391;50.922;6.928;2023-02-12T06:23:52;3.58;;;2.60;;
34697;SDS011;61391;50.922;6.928;2023-02-12T06:26:18;7.55;;;2.00;;
34697;SDS011;61391;50.922;6.928;2023-02-12T06:28:44;8.40;;;3.25;;
34697;SDS011;61391;50.922;6.928;2023-02-12T06:34:32;6.25;;;3.25;;
34697;SDS011;61391;50.922;6.928;2023-02-12T06:40:20;4.43;;;2.95;;
34697;SDS011;61391;50.922;6.928;2023-02-12T06:42:46;7.68;;;4.28;;
34697;SDS011;61391;50.922;6.928;2023-02-12T06:45:11;9.20;;;3.22;;
34697;SDS011;61391;50.922;6.928;2023-02-12T06:47:37;3.35;;;2.72;;
34697;SDS011;61391;50.922;6.928;2023-02-12T06:50:02;5.53;;;3.55;;
34697;SDS011;61391;50.922;6.928;2023-02-12T06:52:28;4.47;;;2.28;;
34697;SDS011;61391;50.922;6.928;2023-02-12T06:54:54;11.10;;;4.85;;
34697;SDS011;61391;50.922;6.928;2023-02-12T06:57:20;4.78;;;2.70;;
34697;SDS011;61391;50.922;6.928;2023-02-12T06:59:45;4.03;;;2.47;;
34697;SDS011;61391;50.922;6.928;2023-02-12T07:02:11;2.63;;;2.17;;
34697;SDS011;61391;50.922;6.928;2023-02-12T07:04:37;5.43;;;2.85;;
34697;SDS011;61391;50.922;6.928;2023-02-12T07:07:03;5.38;;;3.00;;
34697;SDS011;61391;50.922;6.928;2023-02-12T07:09:29;6.30;;;2.75;;
34697;SDS011;61391;50.922;6.928;2023-02-12T07:15:17;3.13;;;2.83;;
34697;SDS011;61391;50.922;6.928;2023-02-12T07:17:43;7.53;;;5.03;;
34697;SDS011;61391;50.922;6.928;2023-02-12T07:20:08;1.83;;;1.73;;
34697;SDS011;61391;50.922;6.928;2023-02-12T07:22:35;9.00;;;3.63;;
34697;SDS011;61391;50.922;6.928;2023-02-12T07:25:01;6.95;;;4.38;;
34697;SDS011;61391;50.922;6.928;2023-02-12T07:30:48;4.05;;;2.90;;
34697;SDS011;61391;50.922;6.928;2023-02-12T07:33:14;4.13;;;3.13;;
34697;SDS011;61391;50.922;6.928;2023-02-12T07:35:40;12.95;;;4.47;;
34697;SDS011;61391;50.922;6.928;2023-02-12T07:38:05;4.07;;;2.95;;
34697;SDS011;61391;50.922;6.928;2023-02-12T07:40:31;4.82;;;2.85;;
34697;SDS011;61391;50.922;6.928;2023-02-12T07:42:56;3.42;;;2.20;;
34697;SDS011;61391;50.922;6.928;2023-02-12T07:45:22;2.63;;;2.45;;
34697;SDS011;61391;50.922;6.928;2023-02-12T07:47:48;3.15;;;2.88;;
34697;SDS011;61391;50.922;6.928;2023-02-12T07:50:14;7.32;;;3.55;;
34697;SDS011;61391;50.922;6.928;2023-02-12T07:58:39;2.97;;;2.38;;
34697;SDS011;61391;50.922;6.928;2023-02-12T08:03:39;5.20;;;2.72;;
34697;SDS011;61391;50.922;6.928;2023-02-12T08:06:09;7.95;;;2.45;;
34697;SDS011;61391;50.922;6.928;2023-02-12T08:08:36;5.40;;;3.15;;
34697;SDS011;61391;50.922;6.928;2023-02-12T08:11:03;3.03;;;2.50;;
34697;SDS011;61391;50.922;6.928;2023-02-12T08:13:30;6.63;;;2.55;;
34697;SDS011;61391;50.922;6.928;2023-02-12T08:16:00;4.40;;;3.58;;
34697;SDS011;61391;50.922;6.928;2023-02-12T08:18:30;12.90;;;3.50;;
34697;SDS011;61391;50.922;6.928;2023-02-12T08:21:03;6.38;;;3.28;;
34697;SDS011;61391;50.922;6.928;2023-02-12T08:23:31;3.47;;;2.67;;
34697;SDS011;61391;50.922;6.928;2023-02-12T08:26:11;6.75;;;3.08;;
34697;SDS011;61391;50.922;6.928;2023-02-12T08:28:40;7.90;;;4.15;;
34697;SDS011;61391;50.922;6.928;2023-02-12T08:31:12;5.93;;;3.05;;
34697;SDS011;61391;50.922;6.928;2023-02-12T08:33:43;4.68;;;3.33;;
34697;SDS011;61391;50.922;6.928;2023-02-12T08:36:11;2.38;;;2.17;;
34697;SDS011;61391;50.922;6.928;2023-02-12T08:42:01;2.00;;;1.87;;
34697;SDS011;61391;50.922;6.928;2023-02-12T08:44:27;5.40;;;3.63;;
34697;SDS011;61391;50.922;6.928;2023-02-12T08:46:53;3.90;;;3.35;;
34697;SDS011;61391;50.922;6.928;2023-02-12T08:49:23;3.67;;;3.38;;
34697;SDS011;61391;50.922;6.928;2023-02-12T08:51:52;5.18;;;2.78;;
34697;SDS011;61391;50.922;6.928;2023-02-12T08:54:20;4.10;;;2.30;;
34697;SDS011;61391;50.922;6.928;2023-02-12T08:56:55;3.20;;;2.97;;
34697;SDS011;61391;50.922;6.928;2023-02-12T08:59:22;6.78;;;3.47;;
34697;SDS011;61391;50.922;6.928;2023-02-12T09:01:49;5.88;;;3.30;;
34697;SDS011;61391;50.922;6.928;2023-02-12T09:04:25;3.72;;;3.38;;
34697;SDS011;61391;50.922;6.928;2023-02-12T09:06:52;6.40;;;4.43;;
34697;SDS011;61391;50.922;6.928;2023-02-12T09:09:18;4.82;;;2.50;;
34697;SDS011;61391;50.922;6.928;2023-02-12T09:15:06;2.85;;;2.55;;
34697;SDS011;61391;50.922;6.928;2023-02-12T09:20:53;3.33;;;3.03;;
34697;SDS011;61391;50.922;6.928;2023-02-12T09:26:41;6.68;;;2.95;;
34697;SDS011;61391;50.922;6.928;2023-02-12T09:32:29;5.90;;;1.98;;
34697;SDS011;61391;50.922;6.928;2023-02-12T09:34:54;4.10;;;2.78;;
34697;SDS011;61391;50.922;6.928;2023-02-12T09:37:20;5.82;;;3.38;;
34697;SDS011;61391;50.922;6.928;2023-02-12T09:39:46;5.45;;;3.42;;
34697;SDS011;61391;50.922;6.928;2023-02-12T09:42:32;9.23;;;3.80;;
34697;SDS011;61391;50.922;6.928;2023-02-12T09:48:31;5.30;;;3.03;;
34697;SDS011;61391;50.922;6.928;2023-02-12T09:51:01;37.15;;;3.40;;
34697;SDS011;61391;50.922;6.928;2023-02-12T09:53:31;6.00;;;3.53;;
34697;SDS011;61391;50.922;6.928;2023-02-12T09:56:02;4.07;;;3.67;;
34697;SDS011;61391;50.922;6.928;2023-02-12T09:58:32;7.00;;;2.55;;
34697;SDS011;61391;50.922;6.928;2023-02-12T10:01:11;2.30;;;2.15;;
34697;SDS011;61391;50.922;6.928;2023-02-12T10:03:39;4.47;;;2.65;;
34697;SDS011;61391;50.922;6.928;2023-02-12T10:06:16;5.30;;;3.28;;
34697;SDS011;61391;50.922;6.928;2023-02-12T10:16:55;5.55;;;2.63;;
34697;SDS011;61391;50.922;6.928;2023-02-12T10:25:48;4.60;;;3.90;;
34697;SDS011;61391;50.922;6.928;2023-02-12T10:28:15;8.30;;;2.67;;
34697;SDS011;61391;50.922;6.928;2023-02-12T10:30:56;7.25;;;3.47;;
34697;SDS011;61391;50.922;6.928;2023-02-12T10:33:33;2.05;;;1.95;;
34697;SDS011;61391;50.922;6.928;2023-02-12T10:39:25;6.43;;;4.47;;
34697;SDS011;61391;50.922;6.928;2023-02-12T10:42:04;4.55;;;2.78;;
34697;SDS011;61391;50.922;6.928;2023-02-12T10:44:45;2.83;;;2.55;;
34697;SDS011;61391;50.922;6.928;2023-02-12T10:47:18;10.05;;;5.68;;
34697;SDS011;61391;50.922;6.928;2023-02-12T10:50:07;6.30;;;4.93;;
34697;SDS011;61391;50.922;6.928;2023-02-12T10:52:46;3.67;;;2.20;;
34697;SDS011;61391;50.922;6.928;2023-02-12T10:55:32;4.85;;;3.13;;
34697;SDS011;61391;50.922;6.928;2023-02-12T10:57:59;4.65;;;2.60;;
34697;SDS011;61391;50.922;6.928;2023-02-12T11:00:31;10.20;;;3.60;;
34697;SDS011;61391;50.922;6.928;2023-02-12T11:05:36;3.10;;;2.65;;
34697;SDS011;61391;50.922;6.928;2023-02-12T11:08:04;3.90;;;2.30;;
34697;SDS011;61391;50.922;6.928;2023-02-12T11:13:53;3.85;;;2.13;;
34697;SDS011;61391;50.922;6.928;2023-02-12T11:16:27;5.13;;;4.03;;
34697;SDS011;61391;50.922;6.928;2023-02-12T11:22:14;4.85;;;2.70;;
34697;SDS011;61391;50.922;6.928;2023-02-12T11:24:43;6.28;;;3.03;;
34697;SDS011;61391;50.922;6.928;2023-02-12T11:29:39;3.47;;;2.35;;
34697;SDS011;61391;50.922;6.928;2023-02-12T11:32:07;2.72;;;2.45;;
34697;SDS011;61391;50.922;6.928;2023-02-12T11:34:39;3.97;;;2.10;;
34697;SDS011;61391;50.922;6.928;2023-02-12T11:37:04;6.45;;;2.33;;
34697;SDS011;61391;50.922;6.928;2023-02-12T11:39:40;3.65;;;2.63;;
34697;SDS011;61391;50.922;6.928;2023-02-12T11:44:50;8.60;;;3.60;;
34697;SDS011;61391;50.922;6.928;2023-02-12T11:47:28;2.75;;;1.63;;
34697;SDS011;61391;50.922;6.928;2023-02-12T11:52:46;2.25;;;2.05;;
34697;SDS011;61391;50.922;6.928;2023-02-12T11:57:49;1.83;;;1.73;;
34697;SDS011;61391;50.922;6.928;2023-02-12T12:00:18;3.13;;;2.88;;
34697;SDS011;61391;50.922;6.928;2023-02-12T12:02:49;2.72;;;2.35;;
34697;SDS011;61391;50.922;6.928;2023-02-12T12:05:30;3.80;;;2.22;;
34697;SDS011;61391;50.922;6.928;2023-02-12T12:08:11;1.58;;;1.45;;
34697;SDS011;61391;50.922;6.928;2023-02-12T12:13:23;7.00;;;3.22;;
34697;SDS011;61391;50.922;6.928;2023-02-12T12:15:59;3.05;;;1.95;;
34697;SDS011;61391;50.922;6.928;2023-02-12T12:22:25;5.25;;;2.08;;
34697;SDS011;61391;50.922;6.928;2023-02-12T12:25:05;5.90;;;4.13;;
34697;SDS011;61391;50.922;6.928;2023-02-12T12:30:35;3.03;;;2.25;;
34697;SDS011;61391;50.922;6.928;2023-02-12T12:52:59;1.40;;;1.30;;
34697;SDS011;61391;50.922;6.928;2023-02-12T12:55:39;1.15;;;1.15;;
34697;SDS011;61391;50.922;6.928;2023-02-12T12:58:20;3.90;;;2.35;;
34697;SDS011;61391;50.922;6.928;2023-02-12T13:13:23;1.13;;;1.02;;
34697;SDS011;61391;50.922;6.928;2023-02-12T13:16:30;3.50;;;1.27;;
34697;SDS011;61391;50.922;6.928;2023-02-12T13:19:31;6.18;;;2.92;;
34697;SDS011;61391;50.922;6.928;2023-02-12T13:27:29;3.80;;;2.10;;
34697;SDS011;61391;50.922;6.928;2023-02-12T13:32:31;0.93;;;0.93;;
34697;SDS011;61391;50.922;6.928;2023-02-12T13:35:01;1.38;;;1.27;;
34697;SDS011;61391;50.922;6.928;2023-02-12T13:40:06;3.00;;;1.67;;
34697;SDS011;61391;50.922;6.928;2023-02-12T13:45:54;3.63;;;1.60;;
34697;SDS011;61391;50.922;6.928;2023-02-12T14:01:11;1.63;;;1.48;;
34697;SDS011;61391;50.922;6.928;2023-02-12T14:03:55;1.85;;;1.75;;
34697;SDS011;61391;50.922;6.928;2023-02-12T14:09:38;6.82;;;1.98;;
34697;SDS011;61391;50.922;6.928;2023-02-12T14:12:32;2.22;;;1.92;;
34697;SDS011;61391;50.922;6.928;2023-02-12T14:18:35;3.42;;;1.50;;
34697;SDS011;61391;50.922;6.928;2023-02-12T14:23:36;3.90;;;1.40;;
34697;SDS011;61391;50.922;6.928;2023-02-12T14:26:14;2.15;;;1.95;;
34697;SDS011;61391;50.922;6.928;2023-02-12T14:33:41;2.90;;;1.55;;
34697;SDS011;61391;50.922;6.928;2023-02-12T14:36:12;2.40;;;1.20;;
34697;SDS011;61391;50.922;6.928;2023-02-12T14:46:58;2.80;;;1.45;;
34697;SDS011;61391;50.922;6.928;2023-02-12T14:49:39;4.03;;;1.27;;
34697;SDS011;61391;50.922;6.928;2023-02-12T14:57:07;1.70;;;1.27;;
34697;SDS011;61391;50.922;6.928;2023-02-12T14:59:46;1.10;;;1.00;;
34697;SDS011;61391;50.922;6.928;2023-02-12T15:05:37;2.28;;;0.90;;
34697;SDS011;61391;50.922;6.928;2023-02-12T15:08:12;2.30;;;0.43;;
34697;SDS011;61391;50.922;6.928;2023-02-12T15:11:03;1.75;;;0.88;;
34697;SDS011;61391;50.922;6.928;2023-02-12T15:14:03;2.20;;;2.00;;
34697;SDS011;61391;50.922;6.928;2023-02-12T15:20:21;0.82;;;0.82;;
34697;SDS011;61391;50.922;6.928;2023-02-12T15:22:49;1.13;;;0.43;;
34697;SDS011;61391;50.922;6.928;2023-02-12T15:28:36;1.35;;;1.30;;
34697;SDS011;61391;50.922;6.928;2023-02-12T15:31:16;1.58;;;1.35;;
34697;SDS011;61391;50.922;6.928;2023-02-12T15:33:47;1.65;;;1.35;;
34697;SDS011;61391;50.922;6.928;2023-02-12T15:36:16;1.08;;;1.08;;
34697;SDS011;61391;50.922;6.928;2023-02-12T15:42:21;1.60;;;0.95;;
34697;SDS011;61391;50.922;6.928;2023-02-12T15:45:04;1.65;;;1.55;;
34697;SDS011;61391;50.922;6.928;2023-02-12T15:47:32;2.72;;;1.55;;
34697;SDS011;61391;50.922;6.928;2023-02-12T15:49:58;0.43;;;0.43;;
34697;SDS011;61391;50.922;6.928;2023-02-12T15:52:32;1.00;;;0.90;;
34697;SDS011;61391;50.922;6.928;2023-02-12T15:55:04;0.55;;;0.52;;
34697;SDS011;61391;50.922;6.928;2023-02-12T15:57:37;2.30;;;1.45;;
34697;SDS011;61391;50.922;6.928;2023-02-12T16:00:06;1.10;;;0.98;;
34697;SDS011;61391;50.922;6.928;2023-02-12T16:02:44;2.65;;;1.63;;
34697;SDS011;61391;50.922;6.928;2023-02-12T16:05:17;1.10;;;1.10;;
34697;SDS011;61391;50.922;6.928;2023-02-12T16:07:43;3.25;;;1.10;;
34697;SDS011;61391;50.922;6.928;2023-02-12T16:13:33;1.73;;;0.95;;
34697;SDS011;61391;50.922;6.928;2023-02-12T16:21:59;0.80;;;0.75;;
34697;SDS011;61391;50.922;6.928;2023-02-12T16:24:39;1.70;;;1.40;;
34697;SDS011;61391;50.922;6.928;2023-02-12T16:27:21;0.57;;;0.57;;
34697;SDS011;61391;50.922;6.928;2023-02-12T16:36:00;0.68;;;0.43;;
34697;SDS011;61391;50.922;6.928;2023-02-12T16:41:50;0.98;;;0.98;;
34697;SDS011;61391;50.922;6.928;2023-02-12T16:44:22;0.55;;;0.55;;
34697;SDS011;61391;50.922;6.928;2023-02-12T16:46:51;2.80;;;1.70;;
34697;SDS011;61391;50.922;6.928;2023-02-12T16:49:20;1.23;;;1.10;;
34697;SDS011;61391;50.922;6.928;2023-02-12T16:51:48;0.82;;;0.82;;
34697;SDS011;61391;50.922;6.928;2023-02-12T16:57:37;2.97;;;1.13;;
34697;SDS011;61391;50.922;6.928;2023-02-12T17:00:03;1.00;;;0.95;;
34697;SDS011;61391;50.922;6.928;2023-02-12T17:05:51;1.00;;;1.00;;
34697;SDS011;61391;50.922;6.928;2023-02-12T17:08:18;0.70;;;0.70;;
34697;SDS011;61391;50.922;6.928;2023-02-12T17:14:09;1.67;;;1.05;;
34697;SDS011;61391;50.922;6.928;2023-02-12T17:20:04;1.38;;;1.05;;
34697;SDS011;61391;50.922;6.928;2023-02-12T17:25:52;4.43;;;1.02;;
34697;SDS011;61391;50.922;6.928;2023-02-12T17:28:17;1.55;;;1.45;;
34697;SDS011;61391;50.922;6.928;2023-02-12T17:34:05;0.75;;;0.75;;
34697;SDS011;61391;50.922;6.928;2023-02-12T17:36:30;0.65;;;0.65;;
34697;SDS011;61391;50.922;6.928;2023-02-12T17:38:56;2.63;;;1.75;;
34697;SDS011;61391;50.922;6.928;2023-02-12T17:41:23;1.45;;;1.15;;
34697;SDS011;61391;50.922;6.928;2023-02-12T17:43:48;0.75;;;0.68;;
34697;SDS011;61391;50.922;6.928;2023-02-12T17:46:18;0.38;;;0.38;;
34697;SDS011;61391;50.922;6.928;2023-02-12T17:48:45;0.65;;;0.60;;
34697;SDS011;61391;50.922;6.928;2023-02-12T17:51:11;1.02;;;1.02;;
34697;SDS011;61391;50.922;6.928;2023-02-12T17:56:59;0.73;;;0.73;;
34697;SDS011;61391;50.922;6.928;2023-02-12T17:59:24;1.65;;;0.60;;
34697;SDS011;61391;50.922;6.928;2023-02-12T18:01:50;1.90;;;1.15;;
34697;SDS011;61391;50.922;6.928;2023-02-12T18:04:16;0.60;;;0.60;;
34697;SDS011;61391;50.922;6.928;2023-02-12T18:06:41;0.98;;;0.98;;
34697;SDS011;61391;50.922;6.928;2023-02-12T18:09:07;2.42;;;1.35;;
34697;SDS011;61391;50.922;6.928;2023-02-12T18:11:32;1.70;;;0.98;;
34697;SDS011;61391;50.922;6.928;2023-02-12T18:13:58;3.50;;;1.20;;
34697;SDS011;61391;50.922;6.928;2023-02-12T18:16:25;5.72;;;0.82;;
34697;SDS011;61391;50.922;6.928;2023-02-12T18:18:55;1.77;;;1.13;;
34697;SDS011;61391;50.922;6.928;2023-02-12T18:21:21;1.40;;;1.30;;
34697;SDS011;61391;50.922;6.928;2023-02-12T18:27:11;1.27;;;0.90;;
34697;SDS011;61391;50.922;6.928;2023-02-12T18:29:37;0.93;;;0.93;;
34697;SDS011;61391;50.922;6.928;2023-02-12T18:32:03;1.80;;;1.25;;
34697;SDS011;61391;50.922;6.928;2023-02-12T18:37:50;0.77;;;0.63;;
34697;SDS011;61391;50.922;6.928;2023-02-12T18:40:16;1.45;;;1.25;;
34697;SDS011;61391;50.922;6.928;2023-02-12T18:45:47;0.50;;;0.43;;
34697;SDS011;61391;50.922;6.928;2023-02-12T18:51:35;1.60;;;0.82;;
34697;SDS011;61391;50.922;6.928;2023-02-12T18:54:04;0.35;;;0.35;;
34697;SDS011;61391;50.922;6.928;2023-02-12T18:56:33;1.23;;;0.90;;
34697;SDS011;61391;50.922;6.928;2023-02-12T18:59:01;1.88;;;1.20;;
34697;SDS011;61391;50.922;6.928;2023-02-12T19:04:50;1.23;;;1.17;;
34697;SDS011;61391;50.922;6.928;2023-02-12T19:10:38;1.17;;;0.90;;
34697;SDS011;61391;50.922;6.928;2023-02-12T19:16:26;1.15;;;1.05;;
34697;SDS011;61391;50.922;6.928;2023-02-12T19:25:26;1.33;;;1.23;;
34697;SDS011;61391;50.922;6.928;2023-02-12T19:27:52;1.48;;;1.35;;
34697;SDS011;61391;50.922;6.928;2023-02-12T19:37:02;0.60;;;0.60;;
34697;SDS011;61391;50.922;6.928;2023-02-12T19:39:27;1.73;;;1.45;;
34697;SDS011;61391;50.922;6.928;2023-02-12T19:41:53;0.88;;;0.88;;
34697;SDS011;61391;50.922;6.928;2023-02-12T19:44:20;2.38;;;1.65;;
34697;SDS011;61391;50.922;6.928;2023-02-12T19:46:47;1.90;;;1.02;;
34697;SDS011;61391;50.922;6.928;2023-02-12T19:52:36;2.70;;;1.88;;
34697;SDS011;61391;50.922;6.928;2023-02-12T19:55:01;2.33;;;1.75;;
34697;SDS011;61391;50.922;6.928;2023-02-12T19:57:27;0.82;;;0.80;;
34697;SDS011;61391;50.922;6.928;2023-02-12T19:59:53;1.83;;;1.73;;
34697;SDS011;61391;50.922;6.928;2023-02-12T20:05:21;0.77;;;0.77;;
34697;SDS011;61391;50.922;6.928;2023-02-12T20:11:10;0.63;;;0.63;;
34697;SDS011;61391;50.922;6.928;2023-02-12T20:13:38;1.05;;;1.05;;
34697;SDS011;61391;50.922;6.928;2023-02-12T20:22:22;1.45;;;1.08;;
34697;SDS011;61391;50.922;6.928;2023-02-12T20:28:10;1.95;;;0.85;;
34697;SDS011;61391;50.922;6.928;2023-02-12T20:30:39;0.50;;;0.50;;
34697;SDS011;61391;50.922;6.928;2023-02-12T20:36:31;1.17;;;1.05;;
34697;SDS011;61391;50.922;6.928;2023-02-12T20:42:21;2.17;;;1.33;;
34697;SDS011;61391;50.922;6.928;2023-02-12T20:44:46;0.40;;;0.40;;
34697;SDS011;61391;50.922;6.928;2023-02-12T20:47:12;2.70;;;1.40;;
34697;SDS011;61391;50.922;6.928;2023-02-12T20:49:37;0.50;;;0.50;;
34697;SDS011;61391;50.922;6.928;2023-02-12T20:52:03;1.60;;;1.50;;
34697;SDS011;61391;50.922;6.928;2023-02-12T20:54:29;0.90;;;0.90;;
34697;SDS011;61391;50.922;6.928;2023-02-12T20:56:54;1.13;;;1.05;;
34697;SDS011;61391;50.922;6.928;2023-02-12T20:59:20;0.60;;;0.50;;
34697;SDS011;61391;50.922;6.928;2023-02-12T21:05:08;0.60;;;0.60;;
34697;SDS011;61391;50.922;6.928;2023-02-12T21:10:56;0.40;;;0.40;;
34697;SDS011;61391;50.922;6.928;2023-02-12T21:13:27;1.98;;;0.93;;
34697;SDS011;61391;50.922;6.928;2023-02-12T21:16:01;1.10;;;0.98;;
34697;SDS011;61391;50.922;6.928;2023-02-12T21:21:56;1.73;;;0.93;;
34697;SDS011;61391;50.922;6.928;2023-02-12T21:27:44;1.00;;;0.75;;
34697;SDS011;61391;50.922;6.928;2023-02-12T21:33:32;0.85;;;0.85;;
34697;SDS011;61391;50.922;6.928;2023-02-12T21:39:21;0.65;;;0.65;;
34697;SDS011;61391;50.922;6.928;2023-02-12T21:41:50;0.82;;;0.82;;
34697;SDS011;61391;50.922;6.928;2023-02-12T21:44:17;1.25;;;1.05;;
34697;SDS011;61391;50.922;6.928;2023-02-12T21:46:44;0.75;;;0.75;;
34697;SDS011;61391;50.922;6.928;2023-02-12T21:49:10;0.25;;;0.25;;